Time;durP1;ratioP1;P1;durP2;ratioP2;P2;SDS_P1;SDS_P2;PMS_P1;PMS_P2;Temp;Humidity;BMP_temperature;BMP_pressure;BME280_temperature;BME280_humidity;BME280_pressure;Samples;Min_cycle;Max_cycle;Signal;HPM_P1;HPM_P2
2022/06/14 00:02:56;;;;;;;7.85;2.40;;;;;;;11.53;63.13;101158.94;10365178;28;19925;-78
2022/06/14 00:07:59;;;;;;;;;;;;;;;11.57;63.20;101171.16;10370006;28;20066;-78
2022/06/14 00:13:04;;;;;;;2.83;1.80;;;;;;;11.32;63.65;101172.09;10355755;28;19948;-78
2022/06/14 00:18:06;;;;;;;6.72;2.08;;;;;;;11.52;63.71;101162.59;10361167;28;20138;-78
2022/06/14 00:23:10;;;;;;;6.53;2.42;;;;;;;11.79;63.15;101151.63;10396221;28;20053;-77
2022/06/14 00:28:16;;;;;;;8.25;2.25;;;;;;;12.06;62.37;101139.75;10362996;28;20172;-78
2022/06/14 00:33:19;;;;;;;7.28;2.30;;;;;;;12.07;61.75;101136.13;10362635;28;20058;-78
2022/06/14 00:38:22;;;;;;;8.07;2.38;;;;;;;12.14;61.66;101134.66;10363188;28;20491;-78
2022/06/14 00:43:27;;;;;;;;;;;;;;;12.02;61.23;101135.59;10375168;28;20049;-78
2022/06/14 00:48:32;;;;;;;5.75;2.17;;;;;;;11.92;61.52;101124.66;10376054;28;19928;-78
2022/06/14 00:53:41;;;;;;;5.78;2.05;;;;;;;11.82;61.44;101126.31;10376163;28;20045;-78
2022/06/14 00:58:51;;;;;;;6.78;3.03;;;;;;;11.62;62.25;101131.34;10377632;28;20076;-78
2022/06/14 01:03:57;;;;;;;7.15;2.40;;;;;;;11.09;63.91;101135.22;10362972;28;20511;-78
2022/06/14 01:09:07;;;;;;;6.80;2.42;;;;;;;10.75;65.09;101134.88;10352856;28;20042;-79
2022/06/14 01:14:16;;;;;;;5.55;2.47;;;;;;;10.84;64.89;101132.41;10342334;28;20045;-78
2022/06/14 01:19:22;;;;;;;6.35;2.38;;;;;;;11.06;64.22;101137.13;10358279;28;20096;-78
2022/06/14 01:24:27;;;;;;;6.63;2.67;;;;;;;11.22;63.82;101131.56;10363142;28;20468;-78
2022/06/14 01:29:30;;;;;;;3.38;2.30;;;;;;;11.28;63.32;101139.19;10360549;28;20057;-78
2022/06/14 01:34:36;;;;;;;7.45;3.10;;;;;;;11.18;63.22;101129.19;10370791;28;20049;-78
2022/06/14 01:39:41;;;;;;;5.68;2.90;;;;;;;11.10;63.48;101132.38;10370758;28;20059;-78
2022/06/14 01:44:52;;;;;;;6.95;2.78;;;;;;;10.94;63.55;101135.34;10378332;28;20045;-77
2022/06/14 01:55:39;;;;;;;7.93;3.90;;;;;;;10.61;65.22;101138.53;10359357;28;20497;-78
2022/06/14 02:00:51;;;;;;;4.55;2.40;;;;;;;10.76;65.52;101134.78;10377221;28;20045;-78
2022/06/14 02:06:05;;;;;;;6.28;2.50;;;;;;;10.92;64.96;101128.34;10371924;28;20064;-78
2022/06/14 02:11:14;;;;;;;5.57;2.70;;;;;;;11.14;64.40;101135.78;10375548;28;20099;-76
2022/06/14 02:16:24;;;;;;;8.43;3.00;;;;;;;11.12;63.77;101132.28;10369854;28;20046;-78
2022/06/14 02:21:36;;;;;;;5.90;3.20;;;;;;;11.05;64.19;101131.84;10365780;28;20061;-78
2022/06/14 02:26:47;;;;;;;6.18;4.00;;;;;;;10.70;65.34;101134.38;10361489;28;20056;-78
2022/06/14 02:31:57;;;;;;;6.55;3.35;;;;;;;10.50;66.89;101125.84;10392498;28;20068;-77
2022/06/14 02:37:09;;;;;;;11.02;3.95;;;;;;;10.36;67.50;101153.66;10424828;28;20115;-77
2022/06/14 02:42:20;;;;;;;4.60;3.30;;;;;;;10.53;66.63;101141.78;10423983;28;20060;-77
2022/06/14 02:47:28;;;;;;;4.70;3.33;;;;;;;10.60;65.93;101151.09;10409973;28;20046;-77
2022/06/14 02:52:35;;;;;;;8.13;3.60;;;;;;;10.60;65.66;101147.56;10415062;28;20048;-77
2022/06/14 02:57:51;;;;;;;5.30;3.20;;;;;;;10.41;64.96;101147.97;10402687;28;20033;-78
2022/06/14 03:02:59;;;;;;;9.73;4.00;;;;;;;10.22;65.37;101151.03;10394465;28;20060;-77
2022/06/14 03:08:12;;;;;;;6.65;3.83;;;;;;;10.36;65.49;101145.59;10398795;28;20038;-77
2022/06/14 03:13:26;;;;;;;5.72;4.47;;;;;;;10.35;65.26;101143.03;10379309;28;20054;-77
2022/06/14 03:18:36;;;;;;;6.50;3.83;;;;;;;10.35;65.36;101146.56;10355464;28;20045;-76
2022/06/14 03:23:45;;;;;;;8.95;4.20;;;;;;;10.36;65.54;101144.72;10357602;28;20168;-79
2022/06/14 03:28:55;;;;;;;5.97;3.53;;;;;;;10.50;65.27;101149.16;10360027;28;20053;-78
2022/06/14 03:34:02;;;;;;;6.03;3.67;;;;;;;10.49;65.31;101145.63;10361026;28;20135;-79
2022/06/14 03:39:10;;;;;;;4.90;3.78;;;;;;;10.51;65.56;101145.53;10366892;28;20053;-79
2022/06/14 03:44:16;;;;;;;9.27;4.53;;;;;;;10.54;65.64;101151.53;10369527;28;20045;-79
2022/06/14 03:49:25;;;;;;;7.22;3.63;;;;;;;10.58;65.58;101161.09;10368361;28;20046;-79
2022/06/14 03:54:45;;;;;;;8.77;4.20;;;;;;;10.75;65.14;101153.69;10376506;28;20443;-79
2022/06/14 04:00:03;;;;;;;7.28;3.80;;;;;;;10.84;64.99;101158.44;10373436;28;20049;-79
2022/06/14 04:05:18;;;;;;;;;;;;;;;10.93;64.79;101157.78;10362076;28;20125;-79
2022/06/14 04:10:34;;;;;;;8.73;4.20;;;;;;;10.75;64.95;101159.94;10364710;28;20025;-78
2022/06/14 04:15:45;;;;;;;7.95;3.90;;;;;;;10.73;65.23;101148.44;10360300;28;20139;-78
2022/06/14 04:20:48;;;;;;;6.70;4.50;;;;;;;10.84;65.13;101158.44;10386606;28;20986;-78
2022/06/14 04:25:55;;;;;;;6.68;3.97;;;;;;;10.82;64.97;101157.69;10363195;28;20081;-79
2022/06/14 04:31:05;;;;;;;9.40;4.07;;;;;;;10.92;65.00;101156.09;10353137;28;20537;-79
2022/06/14 04:36:12;;;;;;;6.60;4.03;;;;;;;11.15;64.56;101142.88;10364978;28;20084;-79
2022/06/14 04:41:20;;;;;;;11.23;4.20;;;;;;;11.24;64.19;101135.00;10375147;28;20136;-79
2022/06/14 04:46:30;;;;;;;11.05;4.28;;;;;;;11.30;64.15;101138.19;10375195;28;20132;-78
2022/06/14 04:51:41;;;;;;;8.27;3.83;;;;;;;11.43;64.06;101133.66;10381415;28;20053;-79
2022/06/14 04:56:48;;;;;;;7.70;4.07;;;;;;;11.63;63.62;101137.59;10365463;28;20148;-79
2022/06/14 05:01:57;;;;;;;5.90;3.83;;;;;;;11.77;63.67;101132.03;10359573;28;20057;-79
2022/06/14 05:07:07;;;;;;;12.63;3.88;;;;;;;11.80;63.71;101144.41;10373405;28;20095;-78
2022/06/14 05:12:16;;;;;;;7.63;4.40;;;;;;;11.87;63.88;101148.34;10378119;28;20107;-79
2022/06/14 05:17:27;;;;;;;12.93;4.95;;;;;;;12.06;63.23;101151.38;10364314;28;20045;-79
2022/06/14 05:22:35;;;;;;;9.23;4.43;;;;;;;12.23;62.88;101157.34;10359188;28;20481;-78
2022/06/14 05:27:49;;;;;;;8.15;4.32;;;;;;;12.19;63.24;101145.94;10372823;28;20099;-78
2022/06/14 05:32:58;;;;;;;6.25;4.38;;;;;;;12.62;62.93;101160.69;10368851;28;20534;-78
2022/06/14 05:38:14;;;;;;;5.63;3.72;;;;;;;13.03;61.27;101155.63;10378479;28;20073;-78
2022/06/14 05:43:28;;;;;;;7.22;4.28;;;;;;;13.14;60.35;101154.75;10373443;28;20191;-79
2022/06/14 05:48:37;;;;;;;6.03;4.07;;;;;;;13.42;60.14;101160.66;10349742;28;20187;-78
2022/06/14 05:53:44;;;;;;;9.65;4.03;;;;;;;13.44;59.14;101162.25;10351274;28;20176;-79
2022/06/14 05:58:54;;;;;;;9.40;4.18;;;;;;;13.49;59.72;101160.06;10362875;28;20608;-79
2022/06/14 06:04:05;;;;;;;11.10;4.40;;;;;;;13.88;59.62;101163.16;10354456;28;20045;-78
2022/06/14 06:09:12;;;;;;;7.53;4.40;;;;;;;13.88;58.67;101157.75;10340277;28;20397;-78
2022/06/14 06:14:21;;;;;;;10.88;4.50;;;;;;;13.91;58.92;101167.44;10342618;28;20049;-78
2022/06/14 06:19:31;;;;;;;7.38;4.05;;;;;;;14.46;59.24;101170.94;10353590;28;20049;-79
2022/06/14 06:24:42;;;;;;;9.13;4.40;;;;;;;14.90;57.20;101179.78;10354875;28;20083;-79
2022/06/14 06:29:54;;;;;;;7.45;4.38;;;;;;;15.20;55.81;101178.94;10367381;28;20069;-78
2022/06/14 06:35:02;;;;;;;6.68;4.32;;;;;;;15.50;55.53;101184.53;10378107;28;20115;-78
2022/06/14 06:40:09;;;;;;;10.82;4.50;;;;;;;15.26;54.99;101194.63;10351893;28;20046;-77
2022/06/14 06:45:16;;;;;;;4.05;2.50;;;;;;;15.27;55.71;101190.06;10344029;28;20096;-78
2022/06/14 06:50:24;;;;;;;10.35;3.72;;;;;;;15.80;54.19;101189.03;10356470;28;20416;-78
2022/06/14 06:55:47;;;;;;;7.65;2.58;;;;;;;15.65;54.02;101186.69;10353821;28;20056;-81
2022/06/14 07:00:52;;;;;;;;;;;;;;;16.30;53.10;101188.97;10350265;28;20058;-79
2022/06/14 07:06:00;;;;;;;12.45;3.55;;;;;;;16.88;51.83;101193.50;10343981;28;20412;-78
2022/06/14 07:11:07;;;;;;;6.60;2.67;;;;;;;16.13;52.92;101195.94;10347998;28;20057;-79
2022/06/14 07:16:18;;;;;;;7.35;2.50;;;;;;;16.55;50.75;101188.38;10348740;28;20572;-78
2022/06/14 07:21:28;;;;;;;6.95;3.38;;;;;;;17.37;49.63;101196.94;10348851;28;20482;-81
2022/06/14 07:26:36;;;;;;;6.47;3.28;;;;;;;17.85;48.39;101194.00;10355258;28;21104;-80
2022/06/14 07:31:45;;;;;;;7.68;2.92;;;;;;;17.33;49.12;101190.94;10344906;28;20049;-80
2022/06/14 07:37:03;;;;;;;10.15;2.88;;;;;;;19.73;47.11;101189.19;10359492;28;20046;-79
2022/06/14 07:42:13;;;;;;;10.73;3.17;;;;;;;21.13;41.67;101177.34;10395463;28;20195;-78
2022/06/14 07:47:25;;;;;;;6.68;3.13;;;;;;;21.84;40.36;101180.19;10370745;28;20056;-79
2022/06/14 07:52:36;;;;;;;8.13;3.78;;;;;;;19.20;44.01;101174.78;10375633;28;20045;-81
2022/06/14 07:57:42;;;;;;;7.15;3.75;;;;;;;19.00;44.06;101170.56;10374470;28;20057;-81
2022/06/14 08:02:49;;;;;;;9.05;3.22;;;;;;;19.84;43.54;101163.47;10384430;28;20049;-80
2022/06/14 08:07:57;;;;;;;8.63;3.58;;;;;;;20.87;42.37;101161.19;10375206;28;20096;-80
2022/06/14 08:13:06;;;;;;;12.00;3.55;;;;;;;19.98;42.95;101162.84;10356097;28;20052;-80
2022/06/14 08:18:16;;;;;;;13.43;3.35;;;;;;;18.91;43.96;101174.25;10365480;28;20680;-80
2022/06/14 08:23:26;;;;;;;8.07;3.65;;;;;;;17.70;46.13;101174.63;10353190;28;20526;-81
2022/06/14 08:28:35;;;;;;;11.45;4.28;;;;;;;17.56;47.52;101180.56;10363547;28;20048;-79
2022/06/14 08:33:43;;;;;;;10.65;4.05;;;;;;;16.80;48.65;101181.50;10355052;28;20599;-79
2022/06/14 08:38:52;;;;;;;9.57;2.58;;;;;;;16.38;47.56;101188.28;10351242;28;20668;-80
2022/06/14 08:44:02;;;;;;;8.23;2.55;;;;;;;17.35;45.74;101175.34;10358580;28;20069;-78
2022/06/14 08:49:11;;;;;;;5.90;2.47;;;;;;;16.68;47.59;101181.81;10362990;28;20053;-81
2022/06/14 08:54:35;;;;;;;5.78;2.60;;;;;;;17.69;48.41;101188.38;10342700;28;20065;-79
2022/06/14 09:00:04;;;;;;;11.02;3.08;;;;;;;18.10;48.19;101184.28;10346909;28;20053;-79
2022/06/14 09:05:37;;;;;;;8.88;2.88;;;;;;;18.22;47.74;101187.59;10360042;28;20506;-80
2022/06/14 09:10:55;;;;;;;7.80;3.13;;;;;;;18.75;47.19;101183.13;10339165;28;20049;-82
2022/06/14 09:16:23;;;;;;;9.80;3.28;;;;;;;20.13;43.58;101171.22;10368319;28;20060;-80
2022/06/14 09:21:35;;;;;;;5.03;2.25;;;;;;;19.61;44.58;101172.28;10352413;28;20208;-81
2022/06/14 09:27:00;;;;;;;;;;;;;;;19.06;43.02;101177.22;10361318;28;20057;-78
2022/06/14 09:33:09;;;;;;;6.72;2.80;;;;;;;19.15;43.62;101181.72;10363372;28;19948;-80
2022/06/14 09:38:17;;;;;;;6.72;2.30;;;;;;;19.86;41.87;101173.22;10348034;28;20049;-80
2022/06/14 09:43:53;;;;;;;6.65;1.98;;;;;;;20.34;40.53;101152.50;10359214;28;20064;-81
2022/06/14 09:49:30;;;;;;;7.40;2.60;;;;;;;19.22;42.32;101166.44;10365476;28;20046;-81
2022/06/14 09:55:01;;;;;;;7.15;2.22;;;;;;;19.02;42.94;101177.56;10363417;28;20053;-81
2022/06/14 10:00:19;;;;;;;7.32;2.28;;;;;;;18.85;44.99;101164.88;10351288;28;20442;-79
2022/06/14 10:05:41;;;;;;;5.30;2.10;;;;;;;19.93;40.75;101170.66;10365561;28;20060;-81
2022/06/14 10:10:53;;;;;;;4.90;2.40;;;;;;;19.62;41.37;101170.41;10346757;28;20041;-80
2022/06/14 10:16:05;;;;;;;6.30;1.90;;;;;;;18.01;44.65;101166.16;10339408;28;20046;-82
2022/06/14 10:21:13;;;;;;;6.70;1.73;;;;;;;17.97;46.38;101170.19;10353781;28;20038;-80
2022/06/14 10:32:21;;;;;;;7.60;2.30;;;;;;;18.29;45.36;101179.66;10372575;28;20046;-82
2022/06/14 10:37:41;;;;;;;8.90;2.30;;;;;;;17.89;44.52;101172.78;10356550;28;20083;-82
2022/06/14 10:42:52;;;;;;;6.40;2.50;;;;;;;20.09;41.95;101162.50;10345446;28;20123;-81
2022/06/14 10:48:31;;;;;;;10.77;2.10;;;;;;;20.74;39.94;101164.44;10361343;28;20411;-79
2022/06/14 10:53:45;;;;;;;11.50;2.58;;;;;;;19.04;41.43;101157.50;10355693;28;20103;-81
2022/06/14 10:59:21;;;;;;;7.13;1.73;;;;;;;22.21;37.68;101141.13;10370278;28;20563;-82
2022/06/14 11:04:33;;;;;;;6.40;1.80;;;;;;;22.08;35.54;101146.38;10365022;28;20041;-82
2022/06/14 11:09:51;;;;;;;3.30;2.10;;;;;;;21.03;39.29;101146.63;10360135;28;20064;-80
2022/06/14 11:15:03;;;;;;;4.28;1.70;;;;;;;21.45;39.27;101134.56;10378675;28;20104;-80
2022/06/14 11:20:18;;;;;;;4.43;1.43;;;;;;;20.70;40.37;101140.38;10367594;28;20057;-78
2022/06/14 11:25:35;;;;;;;7.43;1.80;;;;;;;22.79;36.55;101122.34;10377182;28;20050;-81
2022/06/14 11:30:46;;;;;;;4.82;2.00;;;;;;;22.69;36.84;101119.03;10365090;28;20042;-80
2022/06/14 11:36:04;;;;;;;7.93;2.17;;;;;;;21.51;36.54;101113.88;10351081;28;20054;-82
2022/06/14 11:41:14;;;;;;;7.25;1.90;;;;;;;22.69;37.32;101099.84;10357851;28;20057;-82
2022/06/14 11:46:28;;;;;;;5.57;2.20;;;;;;;24.19;33.97;101102.16;10363422;28;20427;-81
2022/06/14 11:51:40;;;;;;;5.05;1.50;;;;;;;23.47;34.24;101100.31;10360453;28;20045;-82
2022/06/14 11:56:55;;;;;;;8.32;1.73;;;;;;;23.07;34.69;101095.16;10359970;28;20053;-81
2022/06/14 12:02:15;;;;;;;9.15;2.10;;;;;;;25.31;30.97;101102.16;10366613;28;20046;-80
2022/06/14 12:07:25;;;;;;;6.22;2.00;;;;;;;24.71;31.75;101093.56;10364854;28;20056;-81
2022/06/14 12:12:37;;;;;;;5.60;1.70;;;;;;;23.76;34.61;101093.91;10365563;28;20053;-81
2022/06/14 12:17:45;;;;;;;5.85;2.05;;;;;;;23.06;34.78;101098.91;10368298;28;20045;-80
2022/06/14 12:23:00;;;;;;;5.53;1.70;;;;;;;24.14;34.79;101096.44;10370334;28;20053;-80
2022/06/14 12:28:19;;;;;;;7.32;2.05;;;;;;;25.55;33.89;101083.41;10353901;28;20112;-80
2022/06/14 12:33:30;;;;;;;5.25;1.83;;;;;;;26.59;30.44;101071.94;10361879;28;20049;-81
2022/06/14 12:38:38;;;;;;;3.90;1.63;;;;;;;25.26;32.94;101070.81;10371720;28;20053;-80
2022/06/14 12:43:57;;;;;;;6.13;2.00;;;;;;;25.47;33.06;101061.59;10384152;28;20145;-80
2022/06/14 12:49:08;;;;;;;5.43;2.15;;;;;;;23.87;32.86;101063.25;10367911;28;20053;-80
2022/06/14 12:54:18;;;;;;;5.95;2.00;;;;;;;24.90;32.74;101056.28;10368790;28;20511;-81
2022/06/14 12:59:29;;;;;;;5.72;2.13;;;;;;;25.35;30.61;101045.72;10379447;28;20648;-80
2022/06/14 13:04:40;;;;;;;6.50;2.63;;;;;;;25.11;31.88;101043.50;10356389;28;20144;-80
2022/06/14 13:09:57;;;;;;;6.57;1.85;;;;;;;25.71;31.79;101036.31;10369786;28;20034;-80
2022/06/14 13:15:09;;;;;;;6.18;2.47;;;;;;;26.58;31.10;101034.44;10363838;28;20688;-81
2022/06/14 13:20:25;;;;;;;4.45;1.95;;;;;;;26.95;30.53;101019.06;10363726;28;20056;-81
2022/06/14 13:25:49;;;;;;;8.63;1.85;;;;;;;27.04;30.24;101025.22;10366288;28;20120;-81
2022/06/14 13:30:59;;;;;;;4.60;1.88;;;;;;;26.67;29.29;101018.50;10364052;28;20120;-81
2022/06/14 13:36:10;;;;;;;7.15;1.92;;;;;;;25.72;30.43;101026.97;10362358;28;20426;-81
2022/06/14 13:41:18;;;;;;;9.57;2.67;;;;;;;24.18;32.16;101012.66;10353099;28;20045;-81
2022/06/14 13:46:26;;;;;;;8.38;2.72;;;;;;;24.93;32.87;101016.50;10368051;28;20038;-81
2022/06/14 13:51:39;;;;;;;6.35;2.00;;;;;;;26.19;30.22;101008.63;10360084;28;20188;-81
2022/06/14 13:56:50;;;;;;;6.35;1.85;;;;;;;25.19;31.77;101004.84;10361878;28;20045;-82
2022/06/14 14:02:01;;;;;;;3.63;2.50;;;;;;;26.02;30.09;100999.91;10356171;28;20046;-81
2022/06/14 14:07:15;;;;;;;5.22;1.70;;;;;;;24.96;31.08;100983.16;10361470;28;20049;-82
2022/06/14 14:12:24;;;;;;;5.35;1.80;;;;;;;26.43;31.03;100973.22;10356804;28;20396;-82
2022/06/14 14:17:37;;;;;;;5.05;1.55;;;;;;;26.95;30.81;100963.09;10343481;28;20041;-81
2022/06/14 14:22:44;;;;;;;7.80;1.90;;;;;;;26.51;30.24;100972.97;10356856;28;20671;-82
2022/06/14 14:27:53;;;;;;;3.85;2.08;;;;;;;27.08;28.58;100960.28;10355192;28;20411;-80
2022/06/14 14:33:18;;;;;;;5.03;1.80;;;;;;;26.16;29.51;100958.63;10370883;28;20133;-82
2022/06/14 14:38:27;;;;;;;9.60;1.73;;;;;;;26.13;29.82;100957.13;10383836;28;20056;-81
2022/06/14 14:43:33;;;;;;;4.53;1.55;;;;;;;26.59;30.50;100949.88;10372883;28;20099;-80
2022/06/14 14:48:42;;;;;;;4.82;1.73;;;;;;;26.07;30.96;100953.34;10372544;28;20148;-79
2022/06/14 14:53:56;;;;;;;5.65;2.20;;;;;;;26.60;29.64;100946.88;10368275;28;20189;-82
2022/06/14 14:59:03;;;;;;;4.70;1.80;;;;;;;26.89;29.71;100939.19;10397098;28;20071;-82
2022/06/14 15:09:58;;;;;;;4.80;1.95;;;;;;;26.32;31.57;100932.56;10359317;28;20182;-81
2022/06/14 15:15:03;;;;;;;5.72;1.75;;;;;;;27.17;29.64;100917.59;10376729;28;21166;-81
2022/06/14 15:20:10;;;;;;;4.78;1.50;;;;;;;26.99;30.37;100919.41;10378272;28;20044;-79
2022/06/14 15:25:20;;;;;;;4.93;2.22;;;;;;;27.42;28.12;100913.22;10388433;28;20046;-82
2022/06/14 15:30:39;;;;;;;6.70;2.45;;;;;;;27.21;29.10;100914.38;10369597;28;20045;-80
2022/06/14 15:35:52;;;;;;;7.70;2.25;;;;;;;27.75;29.06;100904.69;10392281;28;20055;-81
2022/06/14 15:41:09;;;;;;;7.05;2.15;;;;;;;27.66;28.49;100898.59;10366188;28;20517;-81
2022/06/14 15:46:22;;;;;;;3.90;1.52;;;;;;;26.37;29.52;100897.81;10350665;28;20415;-80
2022/06/14 15:51:27;;;;;;;5.07;2.03;;;;;;;26.98;29.38;100888.25;10362908;28;20054;-79
2022/06/14 15:56:36;;;;;;;5.25;1.52;;;;;;;26.84;30.55;100879.19;10370765;28;20119;-80
2022/06/14 16:01:42;;;;;;;4.20;1.58;;;;;;;25.89;30.01;100872.47;10377250;28;20048;-80
2022/06/14 16:06:55;;;;;;;5.03;2.30;;;;;;;25.45;31.06;100876.72;10378960;28;20511;-81
2022/06/14 16:12:02;;;;;;;8.13;2.13;;;;;;;27.18;29.61;100864.16;10376544;28;20046;-80
2022/06/14 16:17:15;;;;;;;7.97;1.90;;;;;;;28.25;28.15;100864.06;10373551;28;20064;-79
2022/06/14 16:22:23;;;;;;;3.70;1.80;;;;;;;28.32;28.42;100855.69;10375428;28;20819;-80
2022/06/14 16:27:41;;;;;;;7.45;2.03;;;;;;;28.54;28.68;100852.47;10377209;28;20495;-81
2022/06/14 16:32:58;;;;;;;7.65;2.00;;;;;;;30.49;26.45;100850.69;10368878;28;21182;-80
2022/06/14 16:38:11;;;;;;;5.03;2.00;;;;;;;34.88;22.16;100842.16;10374296;28;20159;-81
2022/06/14 16:43:23;;;;;;;3.55;1.65;;;;;;;37.02;19.66;100838.03;10380826;28;20045;-81
2022/06/14 16:48:34;;;;;;;4.87;1.57;;;;;;;36.92;19.72;100838.13;10370815;28;21202;-81
2022/06/14 16:53:46;;;;;;;8.00;2.08;;;;;;;36.50;19.29;100836.69;10368682;28;20080;-81
2022/06/14 16:58:57;;;;;;;5.03;1.63;;;;;;;36.66;19.12;100832.66;10369498;28;20475;-78
2022/06/14 17:04:12;;;;;;;11.00;2.10;;;;;;;37.63;19.10;100823.53;10368060;28;20049;-80
2022/06/14 17:09:25;;;;;;;6.15;1.45;;;;;;;38.37;18.92;100823.25;10360307;28;20068;-79
2022/06/14 17:14:36;;;;;;;7.28;1.60;;;;;;;38.96;18.09;100824.69;10363011;28;20084;-80
2022/06/14 17:19:50;;;;;;;5.05;1.85;;;;;;;38.66;18.60;100823.16;10366292;28;20710;-80
2022/06/14 17:25:00;;;;;;;;;;;;;;;38.77;17.70;100813.44;10375179;28;20046;-79
2022/06/14 17:30:12;;;;;;;4.50;1.10;;;;;;;38.10;18.03;100816.31;10394101;28;19931;-80
2022/06/14 17:35:20;;;;;;;6.07;1.58;;;;;;;37.53;18.91;100809.63;10391951;28;20049;-79
2022/06/14 17:40:36;;;;;;;2.90;1.30;;;;;;;36.99;19.28;100807.84;10365386;28;20104;-81
2022/06/14 17:45:43;;;;;;;5.78;1.88;;;;;;;36.07;19.78;100805.56;10366090;28;20050;-80
2022/06/14 17:50:54;;;;;;;3.28;1.80;;;;;;;31.84;22.91;100812.03;10356753;28;20056;-81
2022/06/14 17:56:09;;;;;;;4.53;1.80;;;;;;;27.23;27.74;100818.50;10361882;28;20495;-81
2022/06/14 18:01:18;;;;;;;3.25;1.20;;;;;;;25.26;30.76;100820.66;10366582;28;21217;-79
2022/06/14 18:06:21;;;;;;;4.00;1.42;;;;;;;24.17;32.26;100821.59;10360411;28;20064;-78
2022/06/14 18:11:27;;;;;;;7.57;1.98;;;;;;;22.86;34.14;100826.63;10368323;28;20065;-80
2022/06/14 18:16:38;;;;;;;5.03;1.60;;;;;;;22.01;36.09;100819.88;10363138;28;20046;-79
2022/06/14 18:21:43;;;;;;;4.78;1.73;;;;;;;21.57;37.01;100823.41;10358626;28;20052;-82
2022/06/14 18:27:09;;;;;;;6.93;1.48;;;;;;;21.18;38.00;100821.72;10363520;28;20049;-82
2022/06/14 18:32:17;;;;;;;7.80;2.20;;;;;;;20.97;38.81;100825.09;10359288;28;20442;-80
2022/06/14 18:37:39;;;;;;;3.85;1.90;;;;;;;20.69;39.16;100813.84;10373688;28;20072;-78
2022/06/14 18:43:06;;;;;;;4.65;1.48;;;;;;;20.42;39.80;100818.78;10363601;28;20054;-80
2022/06/14 18:48:43;;;;;;;3.35;1.77;;;;;;;20.26;40.12;100818.81;10353571;28;20630;-79
2022/06/14 18:53:51;;;;;;;5.18;1.30;;;;;;;20.11;40.69;100816.00;10344290;28;21249;-79
2022/06/14 18:59:02;;;;;;;6.07;1.70;;;;;;;20.03;41.13;100807.84;10354475;28;20049;-79
2022/06/14 19:04:12;;;;;;;4.72;1.90;;;;;;;19.92;41.35;100808.25;10357935;28;21234;-79
2022/06/14 19:09:26;;;;;;;3.63;1.40;;;;;;;19.63;42.30;100807.78;10355060;28;20061;-81
2022/06/14 19:14:50;;;;;;;5.90;1.75;;;;;;;19.46;42.20;100816.97;10366698;28;20096;-81
2022/06/14 19:20:08;;;;;;;5.28;1.80;;;;;;;19.30;42.93;100817.00;10370814;28;20466;-82
2022/06/14 19:25:22;;;;;;;4.05;1.65;;;;;;;19.12;42.96;100812.59;10362168;28;20415;-80
2022/06/14 19:30:38;;;;;;;4.60;1.83;;;;;;;18.96;43.83;100818.88;10367829;28;20107;-81
2022/06/14 19:35:46;;;;;;;6.68;2.85;;;;;;;18.74;44.64;100817.63;10373340;28;20111;-78
2022/06/14 19:40:53;;;;;;;6.75;1.67;;;;;;;18.61;45.20;100822.69;10351872;28;20418;-77
2022/06/14 19:46:04;;;;;;;6.07;1.55;;;;;;;18.43;46.17;100827.38;10380894;28;20049;-78
2022/06/14 19:51:11;;;;;;;4.55;1.65;;;;;;;18.21;46.38;100824.28;10363307;28;20053;-78
2022/06/14 19:56:14;;;;;;;3.33;1.50;;;;;;;18.13;46.47;100824.25;10362001;28;20045;-80
2022/06/14 20:01:23;;;;;;;6.20;1.60;;;;;;;18.13;46.90;100832.41;10361884;28;20052;-79
2022/06/14 20:06:30;;;;;;;4.35;2.30;;;;;;;17.94;47.16;100836.16;10364396;28;20439;-79
2022/06/14 20:11:35;;;;;;;5.68;2.45;;;;;;;17.80;47.61;100837.63;10364016;28;20072;-81
2022/06/14 20:16:47;;;;;;;2.28;1.40;;;;;;;17.68;47.40;100837.00;10361123;28;20053;-78
2022/06/14 20:21:50;;;;;;;5.20;1.90;;;;;;;17.55;47.19;100838.44;10356178;28;20068;-80
2022/06/14 20:27:02;;;;;;;5.45;1.88;;;;;;;17.48;47.49;100841.81;10366076;28;20068;-81
2022/06/14 20:32:08;;;;;;;4.57;1.73;;;;;;;17.39;47.92;100844.63;10342119;28;20049;-78
2022/06/14 20:37:12;;;;;;;3.45;1.63;;;;;;;17.22;47.72;100846.34;10346584;28;20050;-78
2022/06/14 20:42:18;;;;;;;4.63;1.70;;;;;;;17.11;48.23;100835.69;10353532;28;20663;-77
2022/06/14 20:47:25;;;;;;;4.53;1.70;;;;;;;17.09;48.44;100835.03;10367882;28;20041;-76
2022/06/14 20:52:29;;;;;;;5.90;1.60;;;;;;;17.03;48.56;100841.91;10361940;28;20049;-78
2022/06/14 20:57:39;;;;;;;10.75;1.55;;;;;;;16.93;48.78;100843.88;10359343;28;20053;-76
2022/06/14 21:08:53;;;;;;;5.72;1.98;;;;;;;16.68;49.17;100840.03;10362747;28;20045;-79
2022/06/14 21:14:07;;;;;;;5.20;1.75;;;;;;;16.56;49.38;100837.56;10354899;28;20629;-77
2022/06/14 21:19:17;;;;;;;5.70;1.58;;;;;;;16.55;49.60;100845.81;10351380;28;20045;-79
2022/06/14 21:24:30;;;;;;;8.68;1.70;;;;;;;16.49;49.50;100852.72;10352111;28;20112;-78
2022/06/14 21:29:44;;;;;;;6.90;2.00;;;;;;;16.40;49.82;100845.50;10355306;28;20052;-78
2022/06/14 21:34:57;;;;;;;5.90;1.80;;;;;;;16.40;49.99;100844.63;10360948;28;20037;-78
2022/06/14 21:40:27;;;;;;;4.10;1.70;;;;;;;16.27;49.96;100843.13;10370971;28;20053;-78
2022/06/14 21:45:36;;;;;;;4.30;1.95;;;;;;;16.15;50.66;100847.00;10373523;28;20034;-78
2022/06/14 21:50:45;;;;;;;3.85;1.70;;;;;;;16.09;51.18;100845.75;10361080;28;20073;-78
2022/06/14 21:55:57;;;;;;;5.10;2.20;;;;;;;16.01;51.11;100848.34;10406149;28;20045;-78
2022/06/14 22:01:13;;;;;;;8.82;2.88;;;;;;;15.90;52.09;100843.94;10359150;28;21366;-78
2022/06/14 22:06:16;;;;;;;8.10;2.78;;;;;;;15.73;52.38;100836.59;10361222;28;20064;-78
2022/06/14 22:11:22;;;;;;;6.70;2.00;;;;;;;15.57;52.92;100839.91;10393282;28;20049;-78
2022/06/14 22:16:29;;;;;;;6.45;2.10;;;;;;;15.51;53.24;100847.78;10383833;28;21181;-78
2022/06/14 22:21:35;;;;;;;10.80;2.30;;;;;;;15.40;53.22;100846.09;10362543;28;20050;-78
2022/06/14 22:26:40;;;;;;;7.10;2.33;;;;;;;15.35;53.84;100840.25;10377908;28;20045;-78
2022/06/14 22:31:44;;;;;;;8.90;2.55;;;;;;;15.34;53.30;100842.09;10361195;28;20450;-78
2022/06/14 22:36:46;;;;;;;7.07;2.42;;;;;;;15.38;53.57;100837.25;10368466;28;20296;-78
2022/06/14 22:41:50;;;;;;;;;;;;;;;15.34;53.65;100827.69;10371377;28;20084;-77
2022/06/14 22:46:53;;;;;;;5.47;3.03;;;;;;;15.21;53.61;100830.69;10384284;28;19940;-78
2022/06/14 22:51:59;;;;;;;7.70;3.13;;;;;;;15.10;54.68;100838.97;10355836;28;20517;-78
2022/06/14 22:57:08;;;;;;;7.15;2.50;;;;;;;15.11;54.29;100841.53;10366742;28;20627;-78
2022/06/14 23:02:11;;;;;;;4.70;2.40;;;;;;;15.00;54.74;100839.81;10380430;28;20120;-78
2022/06/14 23:07:17;;;;;;;4.85;2.35;;;;;;;14.85;55.49;100840.38;10366947;28;20068;-78
2022/06/14 23:12:21;;;;;;;5.80;2.60;;;;;;;14.77;55.59;100836.53;10373992;28;20053;-77
2022/06/14 23:17:24;;;;;;;5.97;2.47;;;;;;;14.71;55.53;100828.97;10355083;28;20045;-78
2022/06/14 23:22:26;;;;;;;7.80;3.22;;;;;;;14.64;55.34;100835.94;10362085;28;20046;-78
2022/06/14 23:27:31;;;;;;;7.20;3.05;;;;;;;14.66;55.34;100822.28;10372730;28;20053;-78
2022/06/14 23:32:34;;;;;;;6.15;2.72;;;;;;;14.50;55.50;100814.72;10378256;28;20469;-77
2022/06/14 23:37:37;;;;;;;4.88;2.40;;;;;;;14.39;56.12;100810.28;10385515;28;20050;-77
2022/06/14 23:42:41;;;;;;;6.13;3.10;;;;;;;14.31;56.30;100816.34;10389521;28;20049;-77
2022/06/14 23:47:44;;;;;;;8.60;2.95;;;;;;;14.22;56.57;100822.56;10388726;28;20712;-79
2022/06/14 23:52:48;;;;;;;6.75;2.60;;;;;;;14.16;56.79;100815.88;10350369;28;21087;-78
2022/06/14 23:57:55;;;;;;;5.63;3.10;;;;;;;14.00;57.23;100809.28;10358680;28;20136;-77
